Time;durP1;ratioP1;P1;durP2;ratioP2;P2;SDS_P1;SDS_P2;PMS_P1;PMS_P2;Temp;Humidity;BMP_temperature;BMP_pressure;BME280_temperature;BME280_humidity;BME280_pressure;Samples;Min_cycle;Max_cycle;Signal;HPM_P1;HPM_P2
2024/01/31 00:01:38;;;;;;;;;;;12.10;99.90;;;;;;7403999;19;20172;-76
2024/01/31 00:04:09;;;;;;;;;;;12.10;99.90;;;;;;7380935;19;19924;-74
2024/01/31 00:06:40;;;;;;;;;;;12.10;99.90;;;;;;7380764;19;19975;-75
2024/01/31 00:09:09;;;;;;;;;;;12.00;99.90;;;;;;7380148;19;19987;-75
2024/01/31 00:11:37;;;;;;;;;;;12.00;99.90;;;;;;7381964;19;19907;-74
2024/01/31 00:14:07;;;;;;;;;;;11.90;99.90;;;;;;7381264;19;19915;-76
2024/01/31 00:16:35;;;;;;;;;;;11.90;99.90;;;;;;7402259;19;19911;-75
2024/01/31 00:19:04;;;;;;;;;;;11.90;99.90;;;;;;7380211;19;19910;-75
2024/01/31 00:21:35;;;;;;;;;;;11.90;99.90;;;;;;7380723;19;19962;-74
2024/01/31 00:24:07;;;;;;;;;;;11.90;99.90;;;;;;7379723;19;19917;-74
2024/01/31 00:26:35;;;;;;;;;;;11.90;99.90;;;;;;7380427;19;19907;-75
2024/01/31 00:29:04;;;;;;;;;;;11.90;99.90;;;;;;7378429;19;20215;-75
2024/01/31 00:31:33;;;;;;;;;;;11.90;99.90;;;;;;7401497;19;20198;-74
2024/01/31 00:34:02;;;;;;;;;;;11.90;99.90;;;;;;7379833;19;19906;-75
2024/01/31 00:36:31;;;;;;;;;;;12.00;99.90;;;;;;7380181;19;20242;-75
2024/01/31 00:39:02;;;;;;;;;;;12.00;99.90;;;;;;7380864;19;19929;-75
2024/01/31 00:41:31;;;;;;;;;;;12.00;99.90;;;;;;7380039;19;19984;-75
2024/01/31 00:43:59;;;;;;;;;;;12.00;99.90;;;;;;7396219;19;19939;-75
2024/01/31 00:46:28;;;;;;;;;;;12.00;99.90;;;;;;7399531;19;19963;-75
2024/01/31 00:48:56;;;;;;;;;;;12.00;99.90;;;;;;7379619;19;19903;-75
2024/01/31 00:51:25;;;;;;;;;;;12.00;99.90;;;;;;7380047;19;19914;-75
2024/01/31 00:53:53;;;;;;;;;;;12.00;99.90;;;;;;7379937;19;19928;-75
2024/01/31 00:56:24;;;;;;;;;;;12.00;99.90;;;;;;7378570;19;20006;-75
2024/01/31 00:58:52;;;;;;;;;;;12.00;99.90;;;;;;7401471;19;19914;-75
2024/01/31 01:01:21;;;;;;;;;;;12.00;99.90;;;;;;7378725;19;20236;-75
2024/01/31 01:03:49;;;;;;;;;;;12.00;99.90;;;;;;7379159;19;20360;-75
2024/01/31 01:06:18;;;;;;;;;;;12.00;99.90;;;;;;7378712;19;20252;-75
2024/01/31 01:08:46;;;;;;;;;;;12.00;99.90;;;;;;7379982;19;19907;-75
2024/01/31 01:11:14;;;;;;;;;;;12.00;99.90;;;;;;7379186;19;19911;-76
2024/01/31 01:13:47;;;;;;;;;;;12.00;99.90;;;;;;7400349;19;19911;-74
2024/01/31 01:16:15;;;;;;;;;;;11.90;99.90;;;;;;7378541;19;20124;-74
2024/01/31 01:18:43;;;;;;;;;;;11.90;99.90;;;;;;7378594;19;20252;-75
2024/01/31 01:21:12;;;;;;;;;;;11.90;99.90;;;;;;7376744;19;20161;-75
2024/01/31 01:23:41;;;;;;;;;;;11.90;99.90;;;;;;7380858;19;19907;-75
2024/01/31 01:26:09;;;;;;;;;;;11.90;99.90;;;;;;7378108;19;19973;-75
2024/01/31 01:28:38;;;;;;;;;;;11.90;99.90;;;;;;7400165;19;19931;-75
2024/01/31 01:31:10;;;;;;;;;;;11.90;99.90;;;;;;7378402;19;20245;-74
2024/01/31 01:33:39;;;;;;;;;;;11.80;99.90;;;;;;7378615;19;19960;-74
2024/01/31 01:36:08;;;;;;;;;;;11.90;99.90;;;;;;7378947;19;19931;-74
2024/01/31 01:38:37;;;;;;;;;;;11.80;99.90;;;;;;7378500;19;19983;-74
2024/01/31 01:41:05;;;;;;;;;;;11.80;99.90;;;;;;7378776;19;20169;-74
2024/01/31 01:43:34;;;;;;;;;;;11.80;99.90;;;;;;7398077;19;19915;-75
2024/01/31 01:46:05;;;;;;;;;;;11.80;99.90;;;;;;7376902;19;19915;-74
2024/01/31 01:48:37;;;;;;;;;;;11.80;99.90;;;;;;7378938;19;19911;-74
2024/01/31 01:51:06;;;;;;;;;;;11.80;99.90;;;;;;7378956;19;20170;-75
2024/01/31 01:53:35;;;;;;;;;;;11.80;99.90;;;;;;7377080;19;19913;-74
2024/01/31 01:56:04;;;;;;;;;;;11.80;99.90;;;;;;7382483;19;19913;-75
2024/01/31 01:58:33;;;;;;;;;;;11.70;99.90;;;;;;7396978;19;20160;-74
2024/01/31 02:01:02;;;;;;;;;;;11.70;99.90;;;;;;7377343;19;19926;-74
2024/01/31 02:03:31;;;;;;;;;;;11.70;99.90;;;;;;7378329;19;20023;-74
2024/01/31 02:06:02;;;;;;;;;;;11.70;99.90;;;;;;7381961;19;19913;-74
2024/01/31 02:08:31;;;;;;;;;;;11.70;99.90;;;;;;7378076;19;19935;-73
2024/01/31 02:10:59;;;;;;;;;;;11.70;99.90;;;;;;7398621;19;19987;-74
2024/01/31 02:13:28;;;;;;;;;;;11.70;99.90;;;;;;7377233;19;19974;-73
2024/01/31 02:15:56;;;;;;;;;;;11.70;99.90;;;;;;7377220;19;20206;-76
2024/01/31 02:18:25;;;;;;;;;;;11.70;99.90;;;;;;7377449;19;19924;-74
2024/01/31 02:20:53;;;;;;;;;;;11.70;99.90;;;;;;7379983;19;19968;-74
2024/01/31 02:23:25;;;;;;;;;;;11.60;99.90;;;;;;7377017;19;19967;-74
2024/01/31 02:25:53;;;;;;;;;;;11.50;99.90;;;;;;7398279;19;19923;-74
2024/01/31 02:28:21;;;;;;;;;;;11.60;99.90;;;;;;7376430;19;19915;-75
2024/01/31 02:30:50;;;;;;;;;;;11.60;99.90;;;;;;7376507;19;20153;-74
2024/01/31 02:33:18;;;;;;;;;;;11.60;99.90;;;;;;7381121;19;19911;-75
2024/01/31 02:35:47;;;;;;;;;;;11.60;99.90;;;;;;7384540;19;19915;-75
2024/01/31 02:38:15;;;;;;;;;;;11.60;99.90;;;;;;7385836;19;19922;-75
2024/01/31 02:40:46;;;;;;;;;;;11.60;99.90;;;;;;7406838;19;19966;-74
2024/01/31 02:43:16;;;;;;;;;;;11.60;99.90;;;;;;7383579;19;19907;-74
2024/01/31 02:45:45;;;;;;;;;;;11.60;99.90;;;;;;7385361;19;19911;-74
2024/01/31 02:48:13;;;;;;;;;;;11.60;99.90;;;;;;7386384;19;20187;-75
2024/01/31 02:50:42;;;;;;;;;;;11.70;99.90;;;;;;7386440;19;19917;-75
2024/01/31 02:53:10;;;;;;;;;;;11.60;99.90;;;;;;7384734;19;19919;-74
2024/01/31 02:55:41;;;;;;;;;;;11.60;99.90;;;;;;7405919;19;19918;-74
2024/01/31 02:58:12;;;;;;;;;;;11.60;99.90;;;;;;7383117;19;19907;-73
2024/01/31 03:00:40;;;;;;;;;;;11.60;99.90;;;;;;7383726;19;20225;-73
2024/01/31 03:03:08;;;;;;;;;;;11.50;99.90;;;;;;7383396;19;20144;-74
2024/01/31 03:05:37;;;;;;;;;;;11.50;99.90;;;;;;7383475;19;20030;-74
2024/01/31 03:08:05;;;;;;;;;;;11.50;99.90;;;;;;7404892;19;19962;-74
2024/01/31 03:10:35;;;;;;;;;;;11.50;99.90;;;;;;7382622;19;19967;-74
2024/01/31 03:13:03;;;;;;;;;;;11.50;99.90;;;;;;7382631;19;19961;-75
2024/01/31 03:15:34;;;;;;;;;;;11.50;99.90;;;;;;7383971;19;19967;-75
2024/01/31 03:18:02;;;;;;;;;;;11.50;99.90;;;;;;7382965;19;19919;-75
2024/01/31 03:20:33;;;;;;;;;;;11.50;99.90;;;;;;7383513;19;19999;-75
2024/01/31 03:23:01;;;;;;;;;;;11.50;99.90;;;;;;7404260;19;20203;-73
2024/01/31 03:25:30;;;;;;;;;;;11.50;99.90;;;;;;7382062;19;19915;-74
2024/01/31 03:27:58;;;;;;;;;;;11.50;99.90;;;;;;7381420;19;19903;-74
2024/01/31 03:30:27;;;;;;;;;;;11.60;99.90;;;;;;7382445;19;19962;-74
2024/01/31 03:32:58;;;;;;;;;;;11.60;99.90;;;;;;7382569;19;19907;-74
2024/01/31 03:35:26;;;;;;;;;;;11.60;99.90;;;;;;7382824;19;19970;-75
2024/01/31 03:37:55;;;;;;;;;;;11.60;99.90;;;;;;7403909;19;19919;-74
2024/01/31 03:40:23;;;;;;;;;;;11.60;99.90;;;;;;7381926;19;20284;-74
2024/01/31 03:42:52;;;;;;;;;;;11.60;99.90;;;;;;7380345;19;20000;-74
2024/01/31 03:45:20;;;;;;;;;;;11.60;99.90;;;;;;7380191;19;19911;-74
2024/01/31 03:47:48;;;;;;;;;;;11.60;99.90;;;;;;7379758;19;19966;-74
2024/01/31 03:50:20;;;;;;;;;;;11.60;99.90;;;;;;7382185;19;19935;-74
2024/01/31 03:52:48;;;;;;;;;;;11.60;99.90;;;;;;7403116;19;19910;-74
2024/01/31 03:55:17;;;;;;;;;;;11.60;99.90;;;;;;7381095;19;20211;-74
2024/01/31 03:57:45;;;;;;;;;;;11.60;99.90;;;;;;7381708;19;19911;-74
2024/01/31 04:00:14;;;;;;;;;;;11.60;99.90;;;;;;7381884;19;19915;-74
2024/01/31 04:02:43;;;;;;;;;;;11.60;99.90;;;;;;7382073;19;19974;-75
2024/01/31 04:05:12;;;;;;;;;;;11.70;99.90;;;;;;7381516;19;20185;-75
2024/01/31 04:07:44;;;;;;;;;;;11.70;99.90;;;;;;7401108;19;19915;-74
2024/01/31 04:10:13;;;;;;;;;;;11.70;99.90;;;;;;7380792;19;19920;-74
2024/01/31 04:12:41;;;;;;;;;;;11.70;99.90;;;;;;7383485;19;19907;-74
2024/01/31 04:15:10;;;;;;;;;;;11.70;99.90;;;;;;7381230;19;19911;-74
2024/01/31 04:17:38;;;;;;;;;;;11.70;99.90;;;;;;7381269;19;19911;-74
2024/01/31 04:20:09;;;;;;;;;;;11.70;99.90;;;;;;7402958;19;19911;-74
2024/01/31 04:22:37;;;;;;;;;;;11.70;99.90;;;;;;7380763;19;19911;-74
2024/01/31 04:25:09;;;;;;;;;;;11.70;99.90;;;;;;7380110;19;19962;-74
2024/01/31 04:27:38;;;;;;;;;;;11.70;99.90;;;;;;7380895;19;20137;-74
2024/01/31 04:30:07;;;;;;;;;;;11.70;99.90;;;;;;7380975;19;19990;-74
2024/01/31 04:32:35;;;;;;;;;;;11.80;99.90;;;;;;7380741;19;19920;-75
2024/01/31 04:35:04;;;;;;;;;;;11.70;99.90;;;;;;7401837;19;20172;-75
2024/01/31 04:37:32;;;;;;;;;;;11.70;99.90;;;;;;7380040;19;20208;-74
2024/01/31 04:40:00;;;;;;;;;;;11.70;99.90;;;;;;7380262;19;19938;-74
2024/01/31 04:42:31;;;;;;;;;;;11.80;99.90;;;;;;7379416;19;19931;-74
2024/01/31 04:45:00;;;;;;;;;;;11.80;99.90;;;;;;7380504;19;20007;-75
2024/01/31 04:47:28;;;;;;;;;;;11.80;99.90;;;;;;7380022;19;19915;-73
2024/01/31 04:49:58;;;;;;;;;;;11.80;99.90;;;;;;7401337;19;19910;-74
2024/01/31 04:52:27;;;;;;;;;;;11.80;99.90;;;;;;7378688;19;19915;-74
2024/01/31 04:54:56;;;;;;;;;;;11.80;99.90;;;;;;7379579;19;19928;-74
2024/01/31 04:57:24;;;;;;;;;;;11.70;99.90;;;;;;7379710;19;19906;-74
2024/01/31 04:59:56;;;;;;;;;;;11.80;99.90;;;;;;7379831;19;19907;-75
2024/01/31 05:02:24;;;;;;;;;;;11.80;99.90;;;;;;7379671;19;19915;-74
2024/01/31 05:04:53;;;;;;;;;;;11.80;99.90;;;;;;7400430;19;20178;-74
2024/01/31 05:07:21;;;;;;;;;;;11.70;99.90;;;;;;7378102;19;19911;-74
2024/01/31 05:09:50;;;;;;;;;;;11.70;99.90;;;;;;7379994;19;19910;-74
2024/01/31 05:12:18;;;;;;;;;;;11.70;99.90;;;;;;7382453;19;19923;-74
2024/01/31 05:14:46;;;;;;;;;;;11.70;99.90;;;;;;7379489;19;19987;-74
2024/01/31 05:17:18;;;;;;;;;;;11.70;99.90;;;;;;7391179;19;19915;-75
2024/01/31 05:19:46;;;;;;;;;;;11.60;99.90;;;;;;7400823;19;19945;-74
2024/01/31 05:22:12;;;;;;;;;;;11.60;99.90;;;;;;7378606;19;19915;-75
2024/01/31 05:24:42;;;;;;;;;;;11.60;99.90;;;;;;7379265;19;20211;-74
2024/01/31 05:27:10;;;;;;;;;;;11.60;99.90;;;;;;7379100;19;19914;-74
2024/01/31 05:29:39;;;;;;;;;;;11.50;99.90;;;;;;7381366;19;20232;-74
2024/01/31 05:32:08;;;;;;;;;;;11.50;99.90;;;;;;7403352;19;19923;-74
2024/01/31 05:34:40;;;;;;;;;;;11.50;99.90;;;;;;7381064;19;20181;-75
2024/01/31 05:37:08;;;;;;;;;;;11.40;99.90;;;;;;7381325;19;19932;-75
2024/01/31 05:39:37;;;;;;;;;;;11.40;99.90;;;;;;7381665;19;19943;-74
2024/01/31 05:42:07;;;;;;;;;;;11.40;99.90;;;;;;7380308;19;19915;-74
2024/01/31 05:44:35;;;;;;;;;;;11.40;99.90;;;;;;7378676;19;19911;-74
2024/01/31 05:47:04;;;;;;;;;;;11.30;99.90;;;;;;7399598;19;19918;-74
2024/01/31 05:49:32;;;;;;;;;;;11.30;99.90;;;;;;7377170;19;19911;-74
2024/01/31 05:52:03;;;;;;;;;;;11.30;99.90;;;;;;7377517;19;19986;-72
2024/01/31 05:54:32;;;;;;;;;;;11.20;99.90;;;;;;7378367;19;19910;-73
2024/01/31 05:57:00;;;;;;;;;;;11.20;99.90;;;;;;7377340;19;19915;-73
2024/01/31 05:59:29;;;;;;;;;;;11.20;99.90;;;;;;7378273;19;19966;-75
2024/01/31 06:01:57;;;;;;;;;;;11.20;99.90;;;;;;7398573;19;19987;-73
2024/01/31 06:04:25;;;;;;;;;;;11.20;99.90;;;;;;7378260;19;19922;-74
2024/01/31 06:06:54;;;;;;;;;;;11.20;99.90;;;;;;7376757;19;20354;-72
2024/01/31 06:09:26;;;;;;;;;;;11.20;99.90;;;;;;7384217;19;19910;-73
2024/01/31 06:11:54;;;;;;;;;;;11.20;99.90;;;;;;7384833;19;19940;-73
2024/01/31 06:14:23;;;;;;;;;;;11.20;99.90;;;;;;7385303;19;19918;-73
2024/01/31 06:16:51;;;;;;;;;;;11.10;99.90;;;;;;7406268;19;20306;-75
2024/01/31 06:19:19;;;;;;;;;;;11.10;99.90;;;;;;7383818;19;19991;-75
2024/01/31 06:21:48;;;;;;;;;;;11.10;99.90;;;;;;7384310;19;20258;-75
2024/01/31 06:24:16;;;;;;;;;;;11.10;99.90;;;;;;7384375;19;20203;-76
2024/01/31 06:26:47;;;;;;;;;;;11.00;99.90;;;;;;7382207;19;20282;-76
2024/01/31 06:29:18;;;;;;;;;;;11.00;99.90;;;;;;7406532;19;19919;-76
2024/01/31 06:31:48;;;;;;;;;;;10.90;99.90;;;;;;7383734;19;19907;-75
2024/01/31 06:34:17;;;;;;;;;;;10.90;99.90;;;;;;7383640;19;20168;-76
2024/01/31 06:36:46;;;;;;;;;;;10.80;99.90;;;;;;7383767;19;19928;-76
2024/01/31 06:39:16;;;;;;;;;;;10.80;99.90;;;;;;7382284;19;19976;-75
2024/01/31 06:41:47;;;;;;;;;;;10.70;99.90;;;;;;7383816;19;19923;-75
2024/01/31 06:44:18;;;;;;;;;;;10.70;99.90;;;;;;7405654;19;20228;-76
2024/01/31 06:46:49;;;;;;;;;;;10.60;99.90;;;;;;7383161;19;20286;-76
2024/01/31 06:49:17;;;;;;;;;;;10.60;99.90;;;;;;7381953;19;19960;-75
2024/01/31 06:51:45;;;;;;;;;;;10.50;99.90;;;;;;7383296;19;19924;-75
2024/01/31 06:54:14;;;;;;;;;;;10.50;99.90;;;;;;7383454;19;19907;-75
2024/01/31 06:56:43;;;;;;;;;;;10.40;99.90;;;;;;7383534;19;19907;-76
2024/01/31 06:59:14;;;;;;;;;;;10.40;99.90;;;;;;7404903;19;19915;-76
2024/01/31 07:01:43;;;;;;;;;;;10.30;99.90;;;;;;7385680;19;20011;-76
2024/01/31 07:04:11;;;;;;;;;;;10.30;99.90;;;;;;7382869;19;19980;-76
2024/01/31 07:06:41;;;;;;;;;;;10.30;99.90;;;;;;7383381;19;19963;-76
2024/01/31 07:09:10;;;;;;;;;;;10.20;99.90;;;;;;7381016;19;20193;-76
2024/01/31 07:11:38;;;;;;;;;;;10.20;99.90;;;;;;7384181;19;19921;-75
2024/01/31 07:14:07;;;;;;;;;;;10.30;99.90;;;;;;7404250;19;20184;-75
2024/01/31 07:16:38;;;;;;;;;;;10.20;99.90;;;;;;7382053;19;19907;-75
2024/01/31 07:19:07;;;;;;;;;;;10.20;99.90;;;;;;7381933;19;20215;-75
2024/01/31 07:21:35;;;;;;;;;;;10.20;99.90;;;;;;7382730;19;20566;-75
2024/01/31 07:24:03;;;;;;;;;;;10.10;99.90;;;;;;7382932;19;19915;-75
2024/01/31 07:26:32;;;;;;;;;;;10.10;99.90;;;;;;7382149;19;19959;-75
2024/01/31 07:29:01;;;;;;;;;;;10.00;99.90;;;;;;7402228;19;19919;-75
2024/01/31 07:31:30;;;;;;;;;;;10.00;99.90;;;;;;7382339;19;19914;-75
2024/01/31 07:34:01;;;;;;;;;;;9.90;99.90;;;;;;7382635;19;19921;-75
2024/01/31 07:36:29;;;;;;;;;;;9.90;99.90;;;;;;7382585;19;19995;-75
2024/01/31 07:38:57;;;;;;;;;;;9.90;99.90;;;;;;7382505;19;19911;-75
2024/01/31 07:41:26;;;;;;;;;;;9.90;99.90;;;;;;7382079;19;19910;-76
2024/01/31 07:43:54;;;;;;;;;;;9.90;99.90;;;;;;7404121;19;19918;-76
2024/01/31 07:46:23;;;;;;;;;;;9.90;99.90;;;;;;7381427;19;19970;-76
2024/01/31 07:48:51;;;;;;;;;;;9.90;99.90;;;;;;7381939;19;19940;-76
2024/01/31 07:51:22;;;;;;;;;;;9.90;99.90;;;;;;7381552;19;19924;-76
2024/01/31 07:53:50;;;;;;;;;;;9.90;99.90;;;;;;7381468;19;19943;-76
2024/01/31 07:56:19;;;;;;;;;;;9.90;99.90;;;;;;7401315;19;19914;-76
2024/01/31 07:58:47;;;;;;;;;;;9.90;99.90;;;;;;7380716;19;20112;-76
2024/01/31 08:01:15;;;;;;;;;;;9.80;99.90;;;;;;7379937;19;19925;-76
2024/01/31 08:03:45;;;;;;;;;;;9.80;99.90;;;;;;7380315;19;20307;-78
2024/01/31 08:06:13;;;;;;;;;;;9.80;99.90;;;;;;7380834;19;20275;-75
2024/01/31 08:08:45;;;;;;;;;;;9.80;99.90;;;;;;7379584;19;19974;-75
2024/01/31 08:11:14;;;;;;;;;;;9.90;99.90;;;;;;7402553;19;19915;-76
2024/01/31 08:13:42;;;;;;;;;;;9.90;99.90;;;;;;7381306;19;19982;-76
2024/01/31 08:16:12;;;;;;;;;;;9.90;99.90;;;;;;7386570;19;19906;-77
2024/01/31 08:18:40;;;;;;;;;;;9.90;99.90;;;;;;7392774;19;19915;-76
2024/01/31 08:21:09;;;;;;;;;;;9.90;99.90;;;;;;7391023;19;19965;-76
2024/01/31 08:23:37;;;;;;;;;;;10.00;99.90;;;;;;7391642;19;19951;-76
2024/01/31 08:26:08;;;;;;;;;;;10.00;99.90;;;;;;7412108;19;19919;-76
2024/01/31 08:28:37;;;;;;;;;;;10.10;99.90;;;;;;7386354;19;19907;-76
2024/01/31 08:31:06;;;;;;;;;;;10.10;99.90;;;;;;7381022;19;19911;-76
2024/01/31 08:33:34;;;;;;;;;;;10.10;99.90;;;;;;7380506;19;19982;-76
2024/01/31 08:36:03;;;;;;;;;;;10.10;99.90;;;;;;7380444;19;19903;-75
2024/01/31 08:38:32;;;;;;;;;;;10.20;99.90;;;;;;7380836;19;19911;-76
2024/01/31 08:41:02;;;;;;;;;;;10.20;99.90;;;;;;7401731;19;19911;-75
2024/01/31 08:43:33;;;;;;;;;;;10.20;99.90;;;;;;7379506;19;20002;-77
2024/01/31 08:46:01;;;;;;;;;;;10.20;99.90;;;;;;7379974;19;19940;-75
2024/01/31 08:48:31;;;;;;;;;;;10.30;99.90;;;;;;7379001;19;19978;-77
2024/01/31 08:51:02;;;;;;;;;;;10.30;99.90;;;;;;7379147;19;20246;-76
2024/01/31 08:53:30;;;;;;;;;;;10.40;99.90;;;;;;7381846;19;19911;-77
2024/01/31 08:55:59;;;;;;;;;;;10.40;99.90;;;;;;7399863;19;20210;-76
2024/01/31 08:58:27;;;;;;;;;;;10.50;99.90;;;;;;7378733;19;19917;-76
2024/01/31 09:00:59;;;;;;;;;;;10.50;99.90;;;;;;7379121;19;19924;-76
2024/01/31 09:03:28;;;;;;;;;;;10.50;99.90;;;;;;7379621;19;19910;-75
2024/01/31 09:05:56;;;;;;;;;;;10.60;99.90;;;;;;7380469;19;19911;-76
2024/01/31 09:08:25;;;;;;;;;;;10.60;99.90;;;;;;7379244;19;19931;-76
2024/01/31 09:10:54;;;;;;;;;;;10.70;99.90;;;;;;7403537;19;19983;-76
2024/01/31 09:13:24;;;;;;;;;;;10.70;99.90;;;;;;7381846;19;19915;-77
2024/01/31 09:15:53;;;;;;;;;;;10.70;99.90;;;;;;7378301;19;19922;-76
2024/01/31 09:18:24;;;;;;;;;;;10.80;99.90;;;;;;7378441;19;19966;-76
2024/01/31 09:20:53;;;;;;;;;;;10.90;99.90;;;;;;7378479;19;20222;-75
2024/01/31 09:23:21;;;;;;;;;;;11.00;99.90;;;;;;7379748;19;19919;-76
2024/01/31 09:25:50;;;;;;;;;;;11.00;99.90;;;;;;7399704;19;19915;-74
2024/01/31 09:28:19;;;;;;;;;;;11.00;99.90;;;;;;7376829;19;19927;-74
2024/01/31 09:30:47;;;;;;;;;;;11.00;99.90;;;;;;7378106;19;19911;-76
2024/01/31 09:33:15;;;;;;;;;;;11.10;99.90;;;;;;7378438;19;19955;-76
2024/01/31 09:35:47;;;;;;;;;;;11.20;99.90;;;;;;7377547;19;19996;-77
2024/01/31 09:38:15;;;;;;;;;;;11.30;99.90;;;;;;7399149;19;20231;-77
2024/01/31 09:40:44;;;;;;;;;;;11.40;99.90;;;;;;7377286;19;19979;-75
2024/01/31 09:43:13;;;;;;;;;;;11.50;99.90;;;;;;7375217;19;19978;-76
2024/01/31 09:45:43;;;;;;;;;;;11.50;99.90;;;;;;7377525;19;19915;-77
2024/01/31 09:48:12;;;;;;;;;;;11.70;99.90;;;;;;7376762;19;20157;-76
2024/01/31 09:50:41;;;;;;;;;;;11.70;99.90;;;;;;7380105;19;20179;-76
2024/01/31 09:53:13;;;;;;;;;;;11.80;99.90;;;;;;7398385;19;19954;-78
2024/01/31 09:55:43;;;;;;;;;;;11.90;99.90;;;;;;7376079;19;20205;-76
2024/01/31 09:58:12;;;;;;;;;;;12.00;99.90;;;;;;7376397;19;20164;-75
2024/01/31 10:00:40;;;;;;;;;;;12.00;99.90;;;;;;7376942;19;19936;-76
2024/01/31 10:03:09;;;;;;;;;;;12.10;99.90;;;;;;7378215;19;19953;-77
2024/01/31 10:05:39;;;;;;;;;;;12.10;99.90;;;;;;7379946;19;20226;-76
2024/01/31 10:08:07;;;;;;;;;;;12.30;99.90;;;;;;7401398;19;19913;-76
2024/01/31 10:10:38;;;;;;;;;;;12.30;99.90;;;;;;7376192;19;19911;-76
2024/01/31 10:13:09;;;;;;;;;;;12.40;99.90;;;;;;7376366;19;20209;-77
2024/01/31 10:15:37;;;;;;;;;;;12.50;99.90;;;;;;7376397;19;20266;-77
2024/01/31 10:18:06;;;;;;;;;;;12.40;99.90;;;;;;7380738;19;19907;-77
2024/01/31 10:20:35;;;;;;;;;;;12.50;99.90;;;;;;7380072;19;19975;-76
2024/01/31 10:23:04;;;;;;;;;;;12.60;99.90;;;;;;7399500;19;20219;-76
2024/01/31 10:25:32;;;;;;;;;;;12.60;99.90;;;;;;7375797;19;20357;-76
2024/01/31 10:28:05;;;;;;;;;;;12.60;99.90;;;;;;7375945;19;19915;-77
2024/01/31 10:30:34;;;;;;;;;;;12.60;99.90;;;;;;7376047;19;19928;-76
2024/01/31 10:33:02;;;;;;;;;;;12.70;99.90;;;;;;7375093;19;20265;-76
2024/01/31 10:35:32;;;;;;;;;;;12.70;99.90;;;;;;7375295;19;19915;-76
2024/01/31 10:38:00;;;;;;;;;;;12.70;99.90;;;;;;7397617;19;19915;-76
2024/01/31 10:40:30;;;;;;;;;;;12.80;99.90;;;;;;7375040;19;19907;-76
2024/01/31 10:42:59;;;;;;;;;;;12.80;99.90;;;;;;7374863;19;19966;-76
2024/01/31 10:45:31;;;;;;;;;;;12.80;99.90;;;;;;7376271;19;19914;-76
2024/01/31 10:48:00;;;;;;;;;;;12.80;99.90;;;;;;7375172;19;19967;-76
2024/01/31 10:50:29;;;;;;;;;;;12.80;99.90;;;;;;7373980;19;19922;-75
2024/01/31 10:52:57;;;;;;;;;;;12.70;99.90;;;;;;7396686;19;20094;-75
2024/01/31 10:55:26;;;;;;;;;;;12.70;99.90;;;;;;7382400;19;19911;-76
2024/01/31 10:57:55;;;;;;;;;;;12.70;99.90;;;;;;7386220;19;20245;-77
2024/01/31 11:00:25;;;;;;;;;;;12.80;99.90;;;;;;7389206;19;19907;-75
2024/01/31 11:02:57;;;;;;;;;;;12.80;99.90;;;;;;7389744;19;19922;-76
2024/01/31 11:05:30;;;;;;;;;;;12.80;99.90;;;;;;7401272;19;19920;-75
2024/01/31 11:07:58;;;;;;;;;;;12.90;99.90;;;;;;7409023;19;19915;-75
2024/01/31 11:10:27;;;;;;;;;;;12.90;99.90;;;;;;7385875;19;19959;-77
2024/01/31 11:12:59;;;;;;;;;;;12.90;99.90;;;;;;7384659;19;19943;-76
2024/01/31 11:15:32;;;;;;;;;;;12.90;99.90;;;;;;7383915;19;20272;-76
2024/01/31 11:18:09;;;;;;;;;;;12.90;99.90;;;;;;7383095;19;19923;-76
2024/01/31 11:20:38;;;;;;;;;;;12.70;99.90;;;;;;7382621;19;19911;-77
2024/01/31 11:23:07;;;;;;;;;;;12.60;99.90;;;;;;7406312;19;19935;-76
2024/01/31 11:25:37;;;;;;;;;;;12.50;99.90;;;;;;7381208;19;19936;-75
2024/01/31 11:28:06;;;;;;;;;;;12.50;99.90;;;;;;7381265;19;19946;-76
2024/01/31 11:30:35;;;;;;;;;;;12.50;99.90;;;;;;7380209;19;19915;-76
2024/01/31 11:33:04;;;;;;;;;;;12.50;99.90;;;;;;7381604;19;19914;-77
2024/01/31 11:35:35;;;;;;;;;;;12.50;99.90;;;;;;7381717;19;19919;-76
2024/01/31 11:38:06;;;;;;;;;;;12.50;99.90;;;;;;7402945;19;19914;-76
2024/01/31 11:40:35;;;;;;;;;;;12.50;99.90;;;;;;7380682;19;19911;-76
2024/01/31 11:43:05;;;;;;;;;;;12.50;99.90;;;;;;7380468;19;19928;-76
2024/01/31 11:45:34;;;;;;;;;;;12.30;99.90;;;;;;7380492;19;19911;-76
2024/01/31 11:48:03;;;;;;;;;;;12.20;99.90;;;;;;7381258;19;19910;-76
2024/01/31 11:50:31;;;;;;;;;;;12.30;99.90;;;;;;7378899;19;20030;-76
2024/01/31 11:53:02;;;;;;;;;;;12.30;99.90;;;;;;7402029;19;19911;-75
2024/01/31 11:55:31;;;;;;;;;;;12.30;99.90;;;;;;7383639;19;19921;-76
2024/01/31 11:58:02;;;;;;;;;;;12.20;99.90;;;;;;7383446;19;20244;-76
2024/01/31 12:00:31;;;;;;;;;;;12.00;99.90;;;;;;7381786;19;19914;-76
2024/01/31 12:02:59;;;;;;;;;;;12.00;99.90;;;;;;7381366;19;19976;-75
2024/01/31 12:05:29;;;;;;;;;;;11.80;99.90;;;;;;7378755;19;19911;-75
2024/01/31 12:07:58;;;;;;;;;;;12.00;99.90;;;;;;7404542;19;20231;-75
2024/01/31 12:10:30;;;;;;;;;;;12.00;99.90;;;;;;7380701;19;19989;-76
2024/01/31 12:13:00;;;;;;;;;;;12.10;99.90;;;;;;7381211;19;19927;-76
2024/01/31 12:15:30;;;;;;;;;;;12.10;99.90;;;;;;7379260;19;20165;-76
2024/01/31 12:18:01;;;;;;;;;;;11.90;99.90;;;;;;7380964;19;19914;-76
2024/01/31 12:20:30;;;;;;;;;;;12.00;99.90;;;;;;7381268;19;19907;-76
2024/01/31 12:22:59;;;;;;;;;;;12.00;99.90;;;;;;7401623;19;19914;-76
2024/01/31 12:25:30;;;;;;;;;;;12.00;99.90;;;;;;7379280;19;20174;-75
2024/01/31 12:28:00;;;;;;;;;;;12.20;99.90;;;;;;7380509;19;19918;-75
2024/01/31 12:30:28;;;;;;;;;;;12.00;99.90;;;;;;7380099;19;19982;-75
2024/01/31 12:32:56;;;;;;;;;;;12.20;99.90;;;;;;7380426;19;19979;-76
2024/01/31 12:35:27;;;;;;;;;;;12.30;99.90;;;;;;7402409;19;19935;-75
2024/01/31 12:37:56;;;;;;;;;;;12.20;99.90;;;;;;7380435;19;19903;-76
2024/01/31 12:40:25;;;;;;;;;;;12.30;99.90;;;;;;7379717;19;19907;-77
2024/01/31 12:43:01;;;;;;;;;;;12.30;99.90;;;;;;7379519;19;19935;-76
2024/01/31 12:45:31;;;;;;;;;;;12.50;99.90;;;;;;7380249;19;19910;-76
2024/01/31 12:47:59;;;;;;;;;;;12.50;99.90;;;;;;7379904;19;19952;-76
2024/01/31 12:50:30;;;;;;;;;;;12.60;99.90;;;;;;7381822;19;19913;-75
2024/01/31 12:52:59;;;;;;;;;;;12.70;99.90;;;;;;7404228;19;20218;-75
2024/01/31 12:55:27;;;;;;;;;;;12.80;99.90;;;;;;7379642;19;19955;-76
2024/01/31 12:58:01;;;;;;;;;;;12.90;99.90;;;;;;7380128;19;19923;-76
2024/01/31 13:00:29;;;;;;;;;;;12.90;99.90;;;;;;7380764;19;19920;-76
2024/01/31 13:03:00;;;;;;;;;;;13.00;99.90;;;;;;7382041;19;19907;-75
2024/01/31 13:05:28;;;;;;;;;;;13.00;99.90;;;;;;7404850;19;19907;-76
2024/01/31 13:07:56;;;;;;;;;;;13.00;99.90;;;;;;7380935;19;19955;-77
2024/01/31 13:10:25;;;;;;;;;;;13.10;99.90;;;;;;7378275;19;19970;-76
2024/01/31 13:12:53;;;;;;;;;;;13.00;99.90;;;;;;7379754;19;19914;-76
2024/01/31 13:15:25;;;;;;;;;;;13.00;99.90;;;;;;7379236;19;20132;-76
2024/01/31 13:17:53;;;;;;;;;;;13.00;99.90;;;;;;7379173;19;19940;-76
2024/01/31 13:20:23;;;;;;;;;;;13.10;99.90;;;;;;7400219;19;19906;-76
2024/01/31 13:22:52;;;;;;;;;;;13.10;99.90;;;;;;7378044;19;19994;-76
2024/01/31 13:25:22;;;;;;;;;;;13.20;99.90;;;;;;7378330;19;19924;-76
2024/01/31 13:27:50;;;;;;;;;;;13.20;99.90;;;;;;7378008;19;20554;-75
2024/01/31 13:30:19;;;;;;;;;;;13.20;99.90;;;;;;7378046;19;19930;-77
2024/01/31 13:32:50;;;;;;;;;;;13.20;99.90;;;;;;7378934;19;19959;-77
2024/01/31 13:35:18;;;;;;;;;;;13.10;99.90;;;;;;7404011;19;20187;-77
2024/01/31 13:37:47;;;;;;;;;;;13.00;99.90;;;;;;7378776;19;19972;-76
2024/01/31 13:40:15;;;;;;;;;;;13.00;99.90;;;;;;7378748;19;20262;-76
2024/01/31 13:42:47;;;;;;;;;;;12.90;99.90;;;;;;7381801;19;19923;-76
2024/01/31 13:45:17;;;;;;;;;;;12.80;99.90;;;;;;7385864;19;19911;-76
2024/01/31 13:47:43;;;;;;;;;;;12.80;99.90;;;;;;7385642;19;19910;-76
2024/01/31 13:50:14;;;;;;;;;;;12.90;99.90;;;;;;7402709;19;20219;-76
2024/01/31 13:52:43;;;;;;;;;;;12.90;99.90;;;;;;7381445;19;20184;-76
2024/01/31 13:55:12;;;;;;;;;;;12.90;99.90;;;;;;7380045;19;19918;-76
2024/01/31 13:57:41;;;;;;;;;;;12.90;99.90;;;;;;7380159;19;19911;-77
2024/01/31 14:00:10;;;;;;;;;;;13.00;99.90;;;;;;7382471;19;19952;-76
2024/01/31 14:02:38;;;;;;;;;;;13.00;99.90;;;;;;7382003;19;19932;-76
2024/01/31 14:05:07;;;;;;;;;;;13.00;99.90;;;;;;7396743;19;19911;-76
2024/01/31 14:07:38;;;;;;;;;;;12.80;99.90;;;;;;7376863;19;19962;-77
2024/01/31 14:10:07;;;;;;;;;;;12.90;99.90;;;;;;7375988;19;19928;-75
2024/01/31 14:12:35;;;;;;;;;;;12.80;99.90;;;;;;7377170;19;19974;-76
2024/01/31 14:15:04;;;;;;;;;;;12.80;99.90;;;;;;7377714;19;19914;-77
2024/01/31 14:17:32;;;;;;;;;;;12.80;99.90;;;;;;7396372;19;20258;-77
2024/01/31 14:20:01;;;;;;;;;;;12.60;99.90;;;;;;7398201;19;20151;-76
2024/01/31 14:22:36;;;;;;;;;;;12.70;99.90;;;;;;7376614;19;20135;-75
2024/01/31 14:25:08;;;;;;;;;;;12.60;99.90;;;;;;7377219;19;19911;-75
2024/01/31 14:27:36;;;;;;;;;;;12.70;99.90;;;;;;7380860;19;19910;-76
2024/01/31 14:30:05;;;;;;;;;;;12.80;99.90;;;;;;7382027;19;19986;-76